sensor_id;sensor_type;location;lat;lon;timestamp;P1;durP1;ratioP1;P2;durP2;ratioP2
69404;SDS011;57084;52.046;5.632;2022-09-21T00:00:00;8.7;;;2.2;;
69404;SDS011;57084;52.046;5.632;2022-09-21T00:01:03;8.7;;;2.2;;
69404;SDS011;57084;52.046;5.632;2022-09-21T00:02:00;8.7;;;2.2;;
69404;SDS011;57084;52.046;5.632;2022-09-21T00:03:00;8.7;;;2.3;;
69404;SDS011;57084;52.046;5.632;2022-09-21T00:04:02;8.7;;;2.3;;
69404;SDS011;57084;52.046;5.632;2022-09-21T00:05:00;8.7;;;2.3;;
69404;SDS011;57084;52.046;5.632;2022-09-21T00:06:01;8.7;;;2.3;;
69404;SDS011;57084;52.046;5.632;2022-09-21T00:07:00;8.7;;;2.3;;
69404;SDS011;57084;52.046;5.632;2022-09-21T00:08:01;5.5;;;2.3;;
69404;SDS011;57084;52.046;5.632;2022-09-21T00:09:00;5.5;;;2.3;;
69404;SDS011;57084;52.046;5.632;2022-09-21T00:10:00;5.5;;;2.3;;
69404;SDS011;57084;52.046;5.632;2022-09-21T00:11:00;5.5;;;2.3;;
69404;SDS011;57084;52.046;5.632;2022-09-21T00:12:00;5.5;;;2.3;;
69404;SDS011;57084;52.046;5.632;2022-09-21T00:13:00;6.4;;;2.2;;
69404;SDS011;57084;52.046;5.632;2022-09-21T00:14:02;6.4;;;2.2;;
69404;SDS011;57084;52.046;5.632;2022-09-21T00:15:00;6.4;;;2.2;;
69404;SDS011;57084;52.046;5.632;2022-09-21T00:16:00;6.4;;;2.2;;
69404;SDS011;57084;52.046;5.632;2022-09-21T00:17:00;6.4;;;2.2;;
69404;SDS011;57084;52.046;5.632;2022-09-21T00:18:00;7.8;;;2.0;;
69404;SDS011;57084;52.046;5.632;2022-09-21T00:19:00;7.8;;;2.0;;
69404;SDS011;57084;52.046;5.632;2022-09-21T00:20:00;7.8;;;2.0;;
69404;SDS011;57084;52.046;5.632;2022-09-21T00:21:00;7.8;;;2.0;;
69404;SDS011;57084;52.046;5.632;2022-09-21T00:22:00;7.8;;;2.0;;
69404;SDS011;57084;52.046;5.632;2022-09-21T00:23:00;8.6;;;2.3;;
69404;SDS011;57084;52.046;5.632;2022-09-21T00:24:00;8.6;;;2.3;;
69404;SDS011;57084;52.046;5.632;2022-09-21T00:25:00;8.6;;;2.3;;
69404;SDS011;57084;52.046;5.632;2022-09-21T00:26:04;8.6;;;2.3;;
69404;SDS011;57084;52.046;5.632;2022-09-21T00:27:00;8.6;;;2.3;;
69404;SDS011;57084;52.046;5.632;2022-09-21T00:28:00;5.4;;;2.2;;
69404;SDS011;57084;52.046;5.632;2022-09-21T00:29:01;5.4;;;2.2;;
69404;SDS011;57084;52.046;5.632;2022-09-21T00:30:00;5.4;;;2.2;;
69404;SDS011;57084;52.046;5.632;2022-09-21T00:31:00;5.4;;;2.2;;
69404;SDS011;57084;52.046;5.632;2022-09-21T00:32:00;5.4;;;2.2;;
69404;SDS011;57084;52.046;5.632;2022-09-21T00:33:00;8.7;;;2.3;;
69404;SDS011;57084;52.046;5.632;2022-09-21T00:34:00;8.7;;;2.3;;
69404;SDS011;57084;52.046;5.632;2022-09-21T00:35:00;8.7;;;2.3;;
69404;SDS011;57084;52.046;5.632;2022-09-21T00:36:03;8.7;;;2.3;;
69404;SDS011;57084;52.046;5.632;2022-09-21T00:37:00;8.7;;;2.3;;
69404;SDS011;57084;52.046;5.632;2022-09-21T00:38:00;8.7;;;2.3;;
69404;SDS011;57084;52.046;5.632;2022-09-21T00:39:01;7.1;;;2.3;;
69404;SDS011;57084;52.046;5.632;2022-09-21T00:40:00;7.1;;;2.3;;
69404;SDS011;57084;52.046;5.632;2022-09-21T00:41:00;7.1;;;2.3;;
69404;SDS011;57084;52.046;5.632;2022-09-21T00:42:00;7.1;;;2.3;;
69404;SDS011;57084;52.046;5.632;2022-09-21T00:43:11;5.4;;;2.1;;
69404;SDS011;57084;52.046;5.632;2022-09-21T00:44:19;5.4;;;2.1;;
69404;SDS011;57084;52.046;5.632;2022-09-21T00:45:00;5.4;;;2.1;;
69404;SDS011;57084;52.046;5.632;2022-09-21T00:46:02;5.4;;;2.1;;
69404;SDS011;57084;52.046;5.632;2022-09-21T00:47:03;5.4;;;2.1;;
69404;SDS011;57084;52.046;5.632;2022-09-21T00:48:00;5.4;;;2.1;;
69404;SDS011;57084;52.046;5.632;2022-09-21T00:49:00;5.0;;;1.9;;
69404;SDS011;57084;52.046;5.632;2022-09-21T00:50:03;5.0;;;1.9;;
69404;SDS011;57084;52.046;5.632;2022-09-21T00:51:02;5.0;;;1.9;;
69404;SDS011;57084;52.046;5.632;2022-09-21T00:52:02;5.0;;;1.9;;
69404;SDS011;57084;52.046;5.632;2022-09-21T00:53:02;5.0;;;1.9;;
69404;SDS011;57084;52.046;5.632;2022-09-21T00:54:03;6.6;;;2.1;;
69404;SDS011;57084;52.046;5.632;2022-09-21T00:55:05;6.6;;;2.1;;
69404;SDS011;57084;52.046;5.632;2022-09-21T00:56:01;6.6;;;2.1;;
69404;SDS011;57084;52.046;5.632;2022-09-21T00:57:01;6.6;;;2.1;;
69404;SDS011;57084;52.046;5.632;2022-09-21T00:58:02;6.6;;;2.1;;
69404;SDS011;57084;52.046;5.632;2022-09-21T00:59:00;7.2;;;2.6;;
69404;SDS011;57084;52.046;5.632;2022-09-21T01:00:04;7.2;;;2.6;;
69404;SDS011;57084;52.046;5.632;2022-09-21T01:01:01;7.2;;;2.6;;
69404;SDS011;57084;52.046;5.632;2022-09-21T01:02:00;7.2;;;2.6;;
69404;SDS011;57084;52.046;5.632;2022-09-21T01:03:00;7.2;;;2.6;;
69404;SDS011;57084;52.046;5.632;2022-09-21T01:04:00;5.7;;;2.1;;
69404;SDS011;57084;52.046;5.632;2022-09-21T01:05:02;5.7;;;2.1;;
69404;SDS011;57084;52.046;5.632;2022-09-21T01:06:00;5.7;;;2.1;;
69404;SDS011;57084;52.046;5.632;2022-09-21T01:07:03;5.7;;;2.1;;
69404;SDS011;57084;52.046;5.632;2022-09-21T01:08:03;5.7;;;2.1;;
69404;SDS011;57084;52.046;5.632;2022-09-21T01:09:00;9.4;;;2.6;;
69404;SDS011;57084;52.046;5.632;2022-09-21T01:10:03;9.4;;;2.6;;
69404;SDS011;57084;52.046;5.632;2022-09-21T01:11:10;9.4;;;2.6;;
69404;SDS011;57084;52.046;5.632;2022-09-21T01:12:09;9.4;;;2.6;;
69404;SDS011;57084;52.046;5.632;2022-09-21T01:13:09;9.4;;;2.6;;
69404;SDS011;57084;52.046;5.632;2022-09-21T01:14:10;6.3;;;2.2;;
69404;SDS011;57084;52.046;5.632;2022-09-21T01:15:10;6.3;;;2.2;;
69404;SDS011;57084;52.046;5.632;2022-09-21T01:16:06;6.3;;;2.2;;
69404;SDS011;57084;52.046;5.632;2022-09-21T01:17:05;6.3;;;2.2;;
69404;SDS011;57084;52.046;5.632;2022-09-21T01:18:06;6.3;;;2.2;;
69404;SDS011;57084;52.046;5.632;2022-09-21T01:19:09;6.5;;;2.3;;
69404;SDS011;57084;52.046;5.632;2022-09-21T01:21:12;6.5;;;2.3;;
69404;SDS011;57084;52.046;5.632;2022-09-21T01:22:07;6.5;;;2.3;;
69404;SDS011;57084;52.046;5.632;2022-09-21T01:23:07;6.5;;;2.3;;
69404;SDS011;57084;52.046;5.632;2022-09-21T01:24:14;10.2;;;2.2;;
69404;SDS011;57084;52.046;5.632;2022-09-21T01:25:07;10.2;;;2.2;;
69404;SDS011;57084;52.046;5.632;2022-09-21T01:26:07;10.2;;;2.2;;
69404;SDS011;57084;52.046;5.632;2022-09-21T01:27:18;10.2;;;2.2;;
69404;SDS011;57084;52.046;5.632;2022-09-21T01:28:07;10.2;;;2.2;;
69404;SDS011;57084;52.046;5.632;2022-09-21T01:29:08;6.1;;;2.0;;
69404;SDS011;57084;52.046;5.632;2022-09-21T01:30:02;6.1;;;2.0;;
69404;SDS011;57084;52.046;5.632;2022-09-21T01:31:03;6.1;;;2.0;;
69404;SDS011;57084;52.046;5.632;2022-09-21T01:32:05;6.1;;;2.0;;
69404;SDS011;57084;52.046;5.632;2022-09-21T01:33:05;6.1;;;2.0;;
69404;SDS011;57084;52.046;5.632;2022-09-21T01:34:05;8.7;;;2.2;;
69404;SDS011;57084;52.046;5.632;2022-09-21T01:35:02;8.7;;;2.2;;
69404;SDS011;57084;52.046;5.632;2022-09-21T01:36:04;8.7;;;2.2;;
69404;SDS011;57084;52.046;5.632;2022-09-21T01:37:05;8.7;;;2.2;;
69404;SDS011;57084;52.046;5.632;2022-09-21T01:38:02;8.7;;;2.2;;
69404;SDS011;57084;52.046;5.632;2022-09-21T01:39:03;7.2;;;2.0;;
69404;SDS011;57084;52.046;5.632;2022-09-21T01:40:03;7.2;;;2.0;;
69404;SDS011;57084;52.046;5.632;2022-09-21T01:41:03;7.2;;;2.0;;
69404;SDS011;57084;52.046;5.632;2022-09-21T01:42:02;7.2;;;2.0;;
69404;SDS011;57084;52.046;5.632;2022-09-21T01:43:02;7.2;;;2.0;;
69404;SDS011;57084;52.046;5.632;2022-09-21T01:44:04;7.7;;;2.4;;
69404;SDS011;57084;52.046;5.632;2022-09-21T01:45:02;7.7;;;2.4;;
69404;SDS011;57084;52.046;5.632;2022-09-21T01:46:02;7.7;;;2.4;;
69404;SDS011;57084;52.046;5.632;2022-09-21T01:47:00;7.7;;;2.4;;
69404;SDS011;57084;52.046;5.632;2022-09-21T01:48:00;7.7;;;2.4;;
69404;SDS011;57084;52.046;5.632;2022-09-21T01:49:05;8.0;;;2.1;;
69404;SDS011;57084;52.046;5.632;2022-09-21T01:50:03;8.0;;;2.1;;
69404;SDS011;57084;52.046;5.632;2022-09-21T01:51:02;8.0;;;2.1;;
69404;SDS011;57084;52.046;5.632;2022-09-21T01:52:04;8.0;;;2.1;;
69404;SDS011;57084;52.046;5.632;2022-09-21T01:53:03;8.0;;;2.1;;
69404;SDS011;57084;52.046;5.632;2022-09-21T01:54:03;7.8;;;2.4;;
69404;SDS011;57084;52.046;5.632;2022-09-21T01:55:05;7.8;;;2.4;;
69404;SDS011;57084;52.046;5.632;2022-09-21T01:56:04;7.8;;;2.4;;
69404;SDS011;57084;52.046;5.632;2022-09-21T01:57:04;7.8;;;2.4;;
69404;SDS011;57084;52.046;5.632;2022-09-21T01:58:06;7.8;;;2.4;;
69404;SDS011;57084;52.046;5.632;2022-09-21T01:59:05;6.1;;;2.1;;
69404;SDS011;57084;52.046;5.632;2022-09-21T02:00:00;6.1;;;2.1;;
69404;SDS011;57084;52.046;5.632;2022-09-21T02:01:01;6.1;;;2.1;;
69404;SDS011;57084;52.046;5.632;2022-09-21T02:02:05;6.1;;;2.1;;
69404;SDS011;57084;52.046;5.632;2022-09-21T02:03:04;6.1;;;2.1;;
69404;SDS011;57084;52.046;5.632;2022-09-21T02:04:04;6.4;;;1.9;;
69404;SDS011;57084;52.046;5.632;2022-09-21T02:05:01;6.4;;;1.9;;
69404;SDS011;57084;52.046;5.632;2022-09-21T02:06:01;6.4;;;1.9;;
69404;SDS011;57084;52.046;5.632;2022-09-21T02:07:00;6.4;;;1.9;;
69404;SDS011;57084;52.046;5.632;2022-09-21T02:08:00;6.4;;;1.9;;
69404;SDS011;57084;52.046;5.632;2022-09-21T02:09:00;6.7;;;2.1;;
69404;SDS011;57084;52.046;5.632;2022-09-21T02:10:01;6.7;;;2.1;;
69404;SDS011;57084;52.046;5.632;2022-09-21T02:11:01;6.7;;;2.1;;
69404;SDS011;57084;52.046;5.632;2022-09-21T02:12:00;6.7;;;2.1;;
69404;SDS011;57084;52.046;5.632;2022-09-21T02:13:03;6.7;;;2.1;;
69404;SDS011;57084;52.046;5.632;2022-09-21T02:14:00;5.9;;;2.1;;
69404;SDS011;57084;52.046;5.632;2022-09-21T02:15:00;5.9;;;2.1;;
69404;SDS011;57084;52.046;5.632;2022-09-21T02:16:10;5.9;;;2.1;;
69404;SDS011;57084;52.046;5.632;2022-09-21T02:17:05;5.9;;;2.1;;
69404;SDS011;57084;52.046;5.632;2022-09-21T02:18:05;5.9;;;2.1;;
69404;SDS011;57084;52.046;5.632;2022-09-21T02:19:07;5.3;;;2.0;;
69404;SDS011;57084;52.046;5.632;2022-09-21T02:20:08;5.3;;;2.0;;
69404;SDS011;57084;52.046;5.632;2022-09-21T02:21:02;5.3;;;2.0;;
69404;SDS011;57084;52.046;5.632;2022-09-21T02:22:03;5.3;;;2.0;;
69404;SDS011;57084;52.046;5.632;2022-09-21T02:23:05;5.3;;;2.0;;
69404;SDS011;57084;52.046;5.632;2022-09-21T02:24:07;5.0;;;1.9;;
69404;SDS011;57084;52.046;5.632;2022-09-21T02:25:04;5.0;;;1.9;;
69404;SDS011;57084;52.046;5.632;2022-09-21T02:26:03;5.0;;;1.9;;
69404;SDS011;57084;52.046;5.632;2022-09-21T02:27:03;5.0;;;1.9;;
69404;SDS011;57084;52.046;5.632;2022-09-21T02:28:05;5.0;;;1.9;;
69404;SDS011;57084;52.046;5.632;2022-09-21T02:29:06;6.3;;;1.8;;
69404;SDS011;57084;52.046;5.632;2022-09-21T02:30:04;6.3;;;1.8;;
69404;SDS011;57084;52.046;5.632;2022-09-21T02:31:05;6.3;;;1.8;;
69404;SDS011;57084;52.046;5.632;2022-09-21T02:32:05;6.3;;;1.8;;
69404;SDS011;57084;52.046;5.632;2022-09-21T02:33:05;6.3;;;1.8;;
69404;SDS011;57084;52.046;5.632;2022-09-21T02:34:03;5.1;;;1.7;;
69404;SDS011;57084;52.046;5.632;2022-09-21T02:35:02;5.1;;;1.7;;
69404;SDS011;57084;52.046;5.632;2022-09-21T02:36:04;5.1;;;1.7;;
69404;SDS011;57084;52.046;5.632;2022-09-21T02:37:05;5.1;;;1.7;;
69404;SDS011;57084;52.046;5.632;2022-09-21T02:38:07;5.1;;;1.7;;
69404;SDS011;57084;52.046;5.632;2022-09-21T02:39:04;6.8;;;1.7;;
69404;SDS011;57084;52.046;5.632;2022-09-21T02:40:03;6.8;;;1.7;;
69404;SDS011;57084;52.046;5.632;2022-09-21T02:41:04;6.8;;;1.7;;
69404;SDS011;57084;52.046;5.632;2022-09-21T02:42:04;6.8;;;1.7;;
69404;SDS011;57084;52.046;5.632;2022-09-21T02:43:04;6.8;;;1.7;;
69404;SDS011;57084;52.046;5.632;2022-09-21T02:44:03;6.8;;;1.7;;
69404;SDS011;57084;52.046;5.632;2022-09-21T02:45:05;7.9;;;1.9;;
69404;SDS011;57084;52.046;5.632;2022-09-21T02:46:03;7.9;;;1.9;;
69404;SDS011;57084;52.046;5.632;2022-09-21T02:47:03;7.9;;;1.9;;
69404;SDS011;57084;52.046;5.632;2022-09-21T02:48:04;7.9;;;1.9;;
69404;SDS011;57084;52.046;5.632;2022-09-21T02:49:03;7.9;;;1.9;;
69404;SDS011;57084;52.046;5.632;2022-09-21T02:50:02;4.6;;;1.9;;
69404;SDS011;57084;52.046;5.632;2022-09-21T02:51:05;4.6;;;1.9;;
69404;SDS011;57084;52.046;5.632;2022-09-21T02:52:03;4.6;;;1.9;;
69404;SDS011;57084;52.046;5.632;2022-09-21T02:53:00;4.6;;;1.9;;
69404;SDS011;57084;52.046;5.632;2022-09-21T02:54:03;4.6;;;1.9;;
69404;SDS011;57084;52.046;5.632;2022-09-21T02:55:01;7.1;;;2.0;;
69404;SDS011;57084;52.046;5.632;2022-09-21T02:56:00;7.1;;;2.0;;
69404;SDS011;57084;52.046;5.632;2022-09-21T02:57:01;7.1;;;2.0;;
69404;SDS011;57084;52.046;5.632;2022-09-21T02:58:02;7.1;;;2.0;;
69404;SDS011;57084;52.046;5.632;2022-09-21T02:59:03;7.1;;;2.0;;
69404;SDS011;57084;52.046;5.632;2022-09-21T03:00:00;5.3;;;1.8;;
69404;SDS011;57084;52.046;5.632;2022-09-21T03:01:00;5.3;;;1.8;;
69404;SDS011;57084;52.046;5.632;2022-09-21T03:02:00;5.3;;;1.8;;
69404;SDS011;57084;52.046;5.632;2022-09-21T03:03:13;5.3;;;1.8;;
69404;SDS011;57084;52.046;5.632;2022-09-21T03:04:00;5.3;;;1.8;;
69404;SDS011;57084;52.046;5.632;2022-09-21T03:05:00;4.6;;;1.7;;
69404;SDS011;57084;52.046;5.632;2022-09-21T03:06:00;4.6;;;1.7;;
69404;SDS011;57084;52.046;5.632;2022-09-21T03:07:00;4.6;;;1.7;;
69404;SDS011;57084;52.046;5.632;2022-09-21T03:08:00;4.6;;;1.7;;
69404;SDS011;57084;52.046;5.632;2022-09-21T03:09:00;4.6;;;1.7;;
69404;SDS011;57084;52.046;5.632;2022-09-21T03:10:00;4.0;;;1.8;;
69404;SDS011;57084;52.046;5.632;2022-09-21T03:11:00;4.0;;;1.8;;
69404;SDS011;57084;52.046;5.632;2022-09-21T03:12:00;4.0;;;1.8;;
69404;SDS011;57084;52.046;5.632;2022-09-21T03:13:00;4.0;;;1.8;;
69404;SDS011;57084;52.046;5.632;2022-09-21T03:14:00;4.0;;;1.8;;
69404;SDS011;57084;52.046;5.632;2022-09-21T03:15:00;8.1;;;2.0;;
69404;SDS011;57084;52.046;5.632;2022-09-21T03:16:01;8.1;;;2.0;;
69404;SDS011;57084;52.046;5.632;2022-09-21T03:17:00;8.1;;;2.0;;
69404;SDS011;57084;52.046;5.632;2022-09-21T03:18:00;8.1;;;2.0;;
69404;SDS011;57084;52.046;5.632;2022-09-21T03:19:00;8.1;;;2.0;;
69404;SDS011;57084;52.046;5.632;2022-09-21T03:20:00;5.5;;;1.8;;
69404;SDS011;57084;52.046;5.632;2022-09-21T03:21:00;5.5;;;1.8;;
69404;SDS011;57084;52.046;5.632;2022-09-21T03:22:00;5.5;;;1.8;;
69404;SDS011;57084;52.046;5.632;2022-09-21T03:23:00;5.5;;;1.8;;
69404;SDS011;57084;52.046;5.632;2022-09-21T03:24:00;5.5;;;1.8;;
69404;SDS011;57084;52.046;5.632;2022-09-21T03:25:00;5.0;;;1.8;;
69404;SDS011;57084;52.046;5.632;2022-09-21T03:26:00;5.0;;;1.8;;
69404;SDS011;57084;52.046;5.632;2022-09-21T03:27:00;5.0;;;1.8;;
69404;SDS011;57084;52.046;5.632;2022-09-21T03:28:00;5.0;;;1.8;;
69404;SDS011;57084;52.046;5.632;2022-09-21T03:29:00;5.0;;;1.8;;
69404;SDS011;57084;52.046;5.632;2022-09-21T03:30:00;4.9;;;1.6;;
69404;SDS011;57084;52.046;5.632;2022-09-21T03:31:00;4.9;;;1.6;;
69404;SDS011;57084;52.046;5.632;2022-09-21T03:32:00;4.9;;;1.6;;
69404;SDS011;57084;52.046;5.632;2022-09-21T03:33:00;4.9;;;1.6;;
69404;SDS011;57084;52.046;5.632;2022-09-21T03:34:00;4.9;;;1.6;;
69404;SDS011;57084;52.046;5.632;2022-09-21T03:35:00;4.2;;;1.5;;
69404;SDS011;57084;52.046;5.632;2022-09-21T03:36:00;4.2;;;1.5;;
69404;SDS011;57084;52.046;5.632;2022-09-21T03:37:00;4.2;;;1.5;;
69404;SDS011;57084;52.046;5.632;2022-09-21T03:38:00;4.2;;;1.5;;
69404;SDS011;57084;52.046;5.632;2022-09-21T03:39:00;4.2;;;1.5;;
69404;SDS011;57084;52.046;5.632;2022-09-21T03:40:00;6.3;;;1.7;;
69404;SDS011;57084;52.046;5.632;2022-09-21T03:41:00;6.3;;;1.7;;
69404;SDS011;57084;52.046;5.632;2022-09-21T03:42:00;6.3;;;1.7;;
69404;SDS011;57084;52.046;5.632;2022-09-21T03:43:00;6.3;;;1.7;;
69404;SDS011;57084;52.046;5.632;2022-09-21T03:44:00;6.3;;;1.7;;
69404;SDS011;57084;52.046;5.632;2022-09-21T03:45:00;7.6;;;1.9;;
69404;SDS011;57084;52.046;5.632;2022-09-21T03:46:00;7.6;;;1.9;;
69404;SDS011;57084;52.046;5.632;2022-09-21T03:47:00;7.6;;;1.9;;
69404;SDS011;57084;52.046;5.632;2022-09-21T03:48:00;7.6;;;1.9;;
69404;SDS011;57084;52.046;5.632;2022-09-21T03:49:00;7.6;;;1.9;;
69404;SDS011;57084;52.046;5.632;2022-09-21T03:50:00;7.5;;;1.8;;
69404;SDS011;57084;52.046;5.632;2022-09-21T03:51:00;7.5;;;1.8;;
69404;SDS011;57084;52.046;5.632;2022-09-21T03:52:00;7.5;;;1.8;;
69404;SDS011;57084;52.046;5.632;2022-09-21T03:53:00;7.5;;;1.8;;
69404;SDS011;57084;52.046;5.632;2022-09-21T03:54:00;7.5;;;1.8;;
69404;SDS011;57084;52.046;5.632;2022-09-21T03:55:00;6.9;;;2.0;;
69404;SDS011;57084;52.046;5.632;2022-09-21T03:56:00;6.9;;;2.0;;
69404;SDS011;57084;52.046;5.632;2022-09-21T03:57:00;6.9;;;2.0;;
69404;SDS011;57084;52.046;5.632;2022-09-21T03:58:00;6.9;;;2.0;;
69404;SDS011;57084;52.046;5.632;2022-09-21T03:59:00;6.9;;;2.0;;
69404;SDS011;57084;52.046;5.632;2022-09-21T04:00:00;4.4;;;1.8;;
69404;SDS011;57084;52.046;5.632;2022-09-21T04:01:00;4.4;;;1.8;;
69404;SDS011;57084;52.046;5.632;2022-09-21T04:02:00;4.4;;;1.8;;
69404;SDS011;57084;52.046;5.632;2022-09-21T04:03:00;4.4;;;1.8;;
69404;SDS011;57084;52.046;5.632;2022-09-21T04:04:00;4.4;;;1.8;;
69404;SDS011;57084;52.046;5.632;2022-09-21T04:05:00;5.9;;;1.9;;
69404;SDS011;57084;52.046;5.632;2022-09-21T04:06:00;5.9;;;1.9;;
69404;SDS011;57084;52.046;5.632;2022-09-21T04:07:00;5.9;;;1.9;;
69404;SDS011;57084;52.046;5.632;2022-09-21T04:08:00;5.9;;;1.9;;
69404;SDS011;57084;52.046;5.632;2022-09-21T04:09:00;5.9;;;1.9;;
69404;SDS011;57084;52.046;5.632;2022-09-21T04:10:00;8.0;;;1.7;;
69404;SDS011;57084;52.046;5.632;2022-09-21T04:11:00;8.0;;;1.7;;
69404;SDS011;57084;52.046;5.632;2022-09-21T04:12:00;8.0;;;1.7;;
69404;SDS011;57084;52.046;5.632;2022-09-21T04:13:00;8.0;;;1.7;;
69404;SDS011;57084;52.046;5.632;2022-09-21T04:14:00;8.0;;;1.7;;
69404;SDS011;57084;52.046;5.632;2022-09-21T04:15:00;7.2;;;1.8;;
69404;SDS011;57084;52.046;5.632;2022-09-21T04:16:00;7.2;;;1.8;;
69404;SDS011;57084;52.046;5.632;2022-09-21T04:17:00;7.2;;;1.8;;
69404;SDS011;57084;52.046;5.632;2022-09-21T04:18:00;7.2;;;1.8;;
69404;SDS011;57084;52.046;5.632;2022-09-21T04:19:00;7.2;;;1.8;;
69404;SDS011;57084;52.046;5.632;2022-09-21T04:20:00;5.8;;;2.2;;
69404;SDS011;57084;52.046;5.632;2022-09-21T04:21:00;5.8;;;2.2;;
69404;SDS011;57084;52.046;5.632;2022-09-21T04:22:00;5.8;;;2.2;;
69404;SDS011;57084;52.046;5.632;2022-09-21T04:23:00;5.8;;;2.2;;
69404;SDS011;57084;52.046;5.632;2022-09-21T04:24:00;5.8;;;2.2;;
69404;SDS011;57084;52.046;5.632;2022-09-21T04:25:00;5.7;;;2.0;;
69404;SDS011;57084;52.046;5.632;2022-09-21T04:26:00;5.7;;;2.0;;
69404;SDS011;57084;52.046;5.632;2022-09-21T04:27:00;5.7;;;2.0;;
69404;SDS011;57084;52.046;5.632;2022-09-21T04:28:00;5.7;;;2.0;;
69404;SDS011;57084;52.046;5.632;2022-09-21T04:29:00;5.7;;;2.0;;
69404;SDS011;57084;52.046;5.632;2022-09-21T04:30:00;4.9;;;1.8;;
69404;SDS011;57084;52.046;5.632;2022-09-21T04:31:00;4.9;;;1.8;;
69404;SDS011;57084;52.046;5.632;2022-09-21T04:32:00;4.9;;;1.8;;
69404;SDS011;57084;52.046;5.632;2022-09-21T04:33:00;4.9;;;1.8;;
69404;SDS011;57084;52.046;5.632;2022-09-21T04:34:00;4.9;;;1.8;;
69404;SDS011;57084;52.046;5.632;2022-09-21T04:35:00;5.4;;;1.7;;
69404;SDS011;57084;52.046;5.632;2022-09-21T04:36:00;5.4;;;1.7;;
69404;SDS011;57084;52.046;5.632;2022-09-21T04:37:00;5.4;;;1.7;;
69404;SDS011;57084;52.046;5.632;2022-09-21T04:38:00;5.4;;;1.7;;
69404;SDS011;57084;52.046;5.632;2022-09-21T04:39:00;5.4;;;1.7;;
69404;SDS011;57084;52.046;5.632;2022-09-21T04:40:00;3.9;;;1.8;;
69404;SDS011;57084;52.046;5.632;2022-09-21T04:41:00;3.9;;;1.8;;
69404;SDS011;57084;52.046;5.632;2022-09-21T04:42:00;3.9;;;1.8;;
69404;SDS011;57084;52.046;5.632;2022-09-21T04:43:00;3.9;;;1.8;;
69404;SDS011;57084;52.046;5.632;2022-09-21T04:44:00;3.9;;;1.8;;
69404;SDS011;57084;52.046;5.632;2022-09-21T04:45:00;3.9;;;1.8;;
69404;SDS011;57084;52.046;5.632;2022-09-21T04:46:03;6.9;;;2.0;;
69404;SDS011;57084;52.046;5.632;2022-09-21T04:47:00;6.9;;;2.0;;
69404;SDS011;57084;52.046;5.632;2022-09-21T04:48:00;6.9;;;2.0;;
69404;SDS011;57084;52.046;5.632;2022-09-21T04:49:00;6.9;;;2.0;;
69404;SDS011;57084;52.046;5.632;2022-09-21T04:50:00;6.9;;;2.0;;
69404;SDS011;57084;52.046;5.632;2022-09-21T04:51:00;5.5;;;1.9;;
69404;SDS011;57084;52.046;5.632;2022-09-21T04:52:00;5.5;;;1.9;;
69404;SDS011;57084;52.046;5.632;2022-09-21T04:53:00;5.5;;;1.9;;
69404;SDS011;57084;52.046;5.632;2022-09-21T04:54:00;5.5;;;1.9;;
69404;SDS011;57084;52.046;5.632;2022-09-21T04:55:00;5.5;;;1.9;;
69404;SDS011;57084;52.046;5.632;2022-09-21T04:56:00;4.6;;;1.9;;
69404;SDS011;57084;52.046;5.632;2022-09-21T04:57:00;4.6;;;1.9;;
69404;SDS011;57084;52.046;5.632;2022-09-21T04:58:00;4.6;;;1.9;;
69404;SDS011;57084;52.046;5.632;2022-09-21T04:59:00;4.6;;;1.9;;
69404;SDS011;57084;52.046;5.632;2022-09-21T05:00:00;4.6;;;1.9;;
69404;SDS011;57084;52.046;5.632;2022-09-21T05:01:00;7.7;;;2.2;;
69404;SDS011;57084;52.046;5.632;2022-09-21T05:02:00;7.7;;;2.2;;
69404;SDS011;57084;52.046;5.632;2022-09-21T05:03:00;7.7;;;2.2;;
69404;SDS011;57084;52.046;5.632;2022-09-21T05:04:00;7.7;;;2.2;;
69404;SDS011;57084;52.046;5.632;2022-09-21T05:05:00;7.7;;;2.2;;
69404;SDS011;57084;52.046;5.632;2022-09-21T05:06:00;7.7;;;1.9;;
69404;SDS011;57084;52.046;5.632;2022-09-21T05:07:00;7.7;;;1.9;;
69404;SDS011;57084;52.046;5.632;2022-09-21T05:08:00;7.7;;;1.9;;
69404;SDS011;57084;52.046;5.632;2022-09-21T05:09:00;7.7;;;1.9;;
69404;SDS011;57084;52.046;5.632;2022-09-21T05:10:00;7.7;;;1.9;;
69404;SDS011;57084;52.046;5.632;2022-09-21T05:11:00;6.2;;;2.0;;
69404;SDS011;57084;52.046;5.632;2022-09-21T05:12:00;6.2;;;2.0;;
69404;SDS011;57084;52.046;5.632;2022-09-21T05:13:00;6.2;;;2.0;;
69404;SDS011;57084;52.046;5.632;2022-09-21T05:14:00;6.2;;;2.0;;
69404;SDS011;57084;52.046;5.632;2022-09-21T05:15:00;6.2;;;2.0;;
69404;SDS011;57084;52.046;5.632;2022-09-21T05:16:00;4.7;;;1.7;;
69404;SDS011;57084;52.046;5.632;2022-09-21T05:17:00;4.7;;;1.7;;
69404;SDS011;57084;52.046;5.632;2022-09-21T05:18:00;4.7;;;1.7;;
69404;SDS011;57084;52.046;5.632;2022-09-21T05:19:00;4.7;;;1.7;;
69404;SDS011;57084;52.046;5.632;2022-09-21T05:20:00;4.7;;;1.7;;
69404;SDS011;57084;52.046;5.632;2022-09-21T05:21:01;7.5;;;1.8;;
69404;SDS011;57084;52.046;5.632;2022-09-21T05:22:00;7.5;;;1.8;;
69404;SDS011;57084;52.046;5.632;2022-09-21T05:23:00;7.5;;;1.8;;
69404;SDS011;57084;52.046;5.632;2022-09-21T05:24:00;7.5;;;1.8;;
69404;SDS011;57084;52.046;5.632;2022-09-21T05:25:00;7.5;;;1.8;;
69404;SDS011;57084;52.046;5.632;2022-09-21T05:26:00;5.3;;;1.8;;
69404;SDS011;57084;52.046;5.632;2022-09-21T05:27:00;5.3;;;1.8;;
69404;SDS011;57084;52.046;5.632;2022-09-21T05:28:00;5.3;;;1.8;;
69404;SDS011;57084;52.046;5.632;2022-09-21T05:29:00;5.3;;;1.8;;
69404;SDS011;57084;52.046;5.632;2022-09-21T05:30:00;5.3;;;1.8;;
69404;SDS011;57084;52.046;5.632;2022-09-21T05:31:08;5.0;;;1.6;;
69404;SDS011;57084;52.046;5.632;2022-09-21T05:32:02;5.0;;;1.6;;
69404;SDS011;57084;52.046;5.632;2022-09-21T05:33:02;5.0;;;1.6;;
69404;SDS011;57084;52.046;5.632;2022-09-21T05:34:05;5.0;;;1.6;;
69404;SDS011;57084;52.046;5.632;2022-09-21T05:35:06;5.0;;;1.6;;
69404;SDS011;57084;52.046;5.632;2022-09-21T05:36:05;8.7;;;1.7;;
69404;SDS011;57084;52.046;5.632;2022-09-21T05:37:05;8.7;;;1.7;;
69404;SDS011;57084;52.046;5.632;2022-09-21T05:38:04;8.7;;;1.7;;
69404;SDS011;57084;52.046;5.632;2022-09-21T05:39:00;8.7;;;1.7;;
69404;SDS011;57084;52.046;5.632;2022-09-21T05:40:00;8.7;;;1.7;;
69404;SDS011;57084;52.046;5.632;2022-09-21T05:41:00;5.5;;;1.8;;
69404;SDS011;57084;52.046;5.632;2022-09-21T05:42:00;5.5;;;1.8;;
69404;SDS011;57084;52.046;5.632;2022-09-21T05:43:00;5.5;;;1.8;;
69404;SDS011;57084;52.046;5.632;2022-09-21T05:44:00;5.5;;;1.8;;
69404;SDS011;57084;52.046;5.632;2022-09-21T05:45:00;5.5;;;1.8;;
69404;SDS011;57084;52.046;5.632;2022-09-21T05:46:03;6.1;;;1.9;;
69404;SDS011;57084;52.046;5.632;2022-09-21T05:47:03;6.1;;;1.9;;
69404;SDS011;57084;52.046;5.632;2022-09-21T05:48:10;6.1;;;1.9;;
69404;SDS011;57084;52.046;5.632;2022-09-21T05:49:04;6.1;;;1.9;;
69404;SDS011;57084;52.046;5.632;2022-09-21T05:50:02;6.1;;;1.9;;
69404;SDS011;57084;52.046;5.632;2022-09-21T05:51:03;4.2;;;1.8;;
69404;SDS011;57084;52.046;5.632;2022-09-21T05:52:06;4.2;;;1.8;;
69404;SDS011;57084;52.046;5.632;2022-09-21T05:53:11;4.2;;;1.8;;
69404;SDS011;57084;52.046;5.632;2022-09-21T05:54:04;4.2;;;1.8;;
69404;SDS011;57084;52.046;5.632;2022-09-21T05:55:06;4.2;;;1.8;;
69404;SDS011;57084;52.046;5.632;2022-09-21T05:56:03;6.8;;;1.8;;
69404;SDS011;57084;52.046;5.632;2022-09-21T05:57:05;6.8;;;1.8;;
69404;SDS011;57084;52.046;5.632;2022-09-21T05:58:05;6.8;;;1.8;;
69404;SDS011;57084;52.046;5.632;2022-09-21T05:59:10;6.8;;;1.8;;
69404;SDS011;57084;52.046;5.632;2022-09-21T06:00:08;6.8;;;1.8;;
69404;SDS011;57084;52.046;5.632;2022-09-21T06:01:13;5.2;;;1.6;;
69404;SDS011;57084;52.046;5.632;2022-09-21T06:02:04;5.2;;;1.6;;
69404;SDS011;57084;52.046;5.632;2022-09-21T06:03:20;5.2;;;1.6;;
69404;SDS011;57084;52.046;5.632;2022-09-21T06:04:01;5.2;;;1.6;;
69404;SDS011;57084;52.046;5.632;2022-09-21T06:05:01;5.2;;;1.6;;
69404;SDS011;57084;52.046;5.632;2022-09-21T06:06:00;3.9;;;1.7;;
69404;SDS011;57084;52.046;5.632;2022-09-21T06:07:00;3.9;;;1.7;;
69404;SDS011;57084;52.046;5.632;2022-09-21T06:08:00;3.9;;;1.7;;
69404;SDS011;57084;52.046;5.632;2022-09-21T06:09:00;3.9;;;1.7;;
69404;SDS011;57084;52.046;5.632;2022-09-21T06:10:00;3.9;;;1.7;;
69404;SDS011;57084;52.046;5.632;2022-09-21T06:11:00;5.2;;;1.7;;
69404;SDS011;57084;52.046;5.632;2022-09-21T06:12:00;5.2;;;1.7;;
69404;SDS011;57084;52.046;5.632;2022-09-21T06:13:00;5.2;;;1.7;;